createdAt,value
2023-06-07T00:01:50.460Z,23.52
2023-06-07T00:04:19.186Z,23.22
2023-06-07T00:06:48.048Z,23.58
2023-06-07T00:09:17.045Z,23.49
2023-06-07T00:11:45.676Z,23.57
2023-06-07T00:14:14.387Z,23.50
2023-06-07T00:16:43.203Z,23.73
2023-06-07T00:19:14.071Z,23.78
2023-06-07T00:21:42.971Z,23.66
2023-06-07T00:24:10.991Z,23.80
2023-06-07T00:26:39.959Z,24.06
2023-06-07T00:29:08.703Z,23.92
2023-06-07T00:31:37.528Z,23.76
2023-06-07T00:34:07.874Z,23.83
2023-06-07T00:36:36.902Z,23.73
2023-06-07T00:39:06.052Z,23.96
2023-06-07T00:41:34.878Z,23.96
2023-06-07T00:44:04.742Z,23.70
2023-06-07T00:46:34.624Z,23.69
2023-06-07T00:49:03.639Z,23.67
2023-06-07T00:51:33.682Z,23.59
2023-06-07T00:54:05.528Z,23.65
2023-06-07T00:56:34.435Z,23.73
2023-06-07T00:59:03.568Z,23.84
2023-06-07T01:01:32.539Z,23.95
2023-06-07T01:04:02.694Z,24.12
2023-06-07T01:06:32.241Z,24.07
2023-06-07T01:09:01.505Z,23.89
2023-06-07T01:11:30.240Z,23.87
2023-06-07T01:14:00.195Z,23.83
2023-06-07T01:16:28.641Z,23.98
2023-06-07T01:18:59.057Z,24.00
2023-06-07T01:21:28.033Z,23.96
2023-06-07T01:23:59.296Z,23.98
2023-06-07T01:26:29.690Z,23.96
2023-06-07T01:29:08.363Z,23.93
2023-06-07T01:31:39.599Z,23.78
2023-06-07T01:34:10.687Z,23.75
2023-06-07T01:36:39.972Z,23.55
2023-06-07T01:39:10.247Z,23.55
2023-06-07T01:41:39.478Z,23.50
2023-06-07T01:44:08.108Z,23.35
2023-06-07T01:46:37.598Z,23.51
2023-06-07T01:49:06.700Z,23.49
2023-06-07T01:51:35.356Z,23.52
2023-06-07T01:54:04.613Z,23.47
2023-06-07T01:56:48.188Z,23.55
2023-06-07T02:00:03.735Z,23.44
2023-06-07T02:02:54.493Z,23.46
2023-06-07T02:05:40.704Z,23.37
2023-06-07T02:08:16.657Z,23.26
2023-06-07T02:10:46.629Z,23.28
2023-06-07T02:13:17.780Z,23.20
2023-06-07T02:15:50.036Z,23.17
2023-06-07T02:18:22.157Z,23.10
2023-06-07T02:20:51.233Z,23.03
2023-06-07T02:23:19.945Z,22.92
2023-06-07T02:25:48.783Z,22.74
2023-06-07T02:28:16.917Z,22.67
2023-06-07T02:30:45.575Z,22.59
2023-06-07T02:33:16.260Z,22.57
2023-06-07T02:35:47.520Z,22.48
2023-06-07T02:38:16.820Z,22.21
2023-06-07T02:40:45.536Z,22.11
2023-06-07T02:43:14.775Z,21.90
2023-06-07T02:45:43.523Z,21.76
2023-06-07T02:48:12.239Z,21.73
2023-06-07T02:50:41.220Z,21.66
2023-06-07T02:53:09.920Z,21.57
2023-06-07T02:55:38.586Z,21.46
2023-06-07T02:58:08.129Z,21.33
2023-06-07T03:00:37.370Z,21.16
2023-06-07T03:03:07.948Z,21.01
2023-06-07T03:05:36.731Z,20.96
2023-06-07T03:08:05.517Z,20.79
2023-06-07T03:10:35.048Z,20.71
2023-06-07T03:13:03.805Z,20.51
2023-06-07T03:15:32.634Z,20.38
2023-06-07T03:18:01.520Z,20.21
2023-06-07T03:20:31.085Z,20.18
2023-06-07T03:22:59.818Z,20.07
2023-06-07T03:25:28.642Z,19.96
2023-06-07T03:27:57.369Z,19.82
2023-06-07T03:30:26.011Z,19.68
2023-06-07T03:32:54.785Z,19.53
2023-06-07T03:35:24.069Z,19.38
2023-06-07T03:37:53.101Z,19.08
2023-06-07T03:40:21.952Z,18.91
2023-06-07T03:42:50.735Z,18.68
2023-06-07T03:45:19.548Z,18.56
2023-06-07T03:47:48.290Z,18.50
2023-06-07T03:50:17.327Z,18.31
2023-06-07T03:52:46.005Z,18.16
2023-06-07T03:55:16.183Z,18.08
2023-06-07T03:57:45.161Z,17.95
2023-06-07T04:00:15.013Z,17.83
2023-06-07T04:02:43.736Z,17.66
2023-06-07T04:05:13.884Z,17.58
2023-06-07T04:07:43.919Z,17.54
2023-06-07T04:10:12.168Z,17.41
2023-06-07T04:12:41.040Z,17.32
2023-06-07T04:15:10.271Z,17.12
2023-06-07T04:17:38.977Z,17.04
2023-06-07T04:20:09.086Z,16.93
2023-06-07T04:22:38.283Z,16.75
2023-06-07T04:25:08.439Z,16.65
2023-06-07T04:27:40.681Z,16.57
2023-06-07T04:30:11.387Z,16.61
2023-06-07T04:32:41.213Z,16.55
2023-06-07T04:35:10.331Z,16.56
2023-06-07T04:37:39.007Z,16.51
2023-06-07T04:40:08.762Z,16.48
2023-06-07T04:42:40.025Z,16.87
2023-06-07T04:45:09.725Z,17.02
2023-06-07T04:47:38.325Z,17.04
2023-06-07T04:50:08.702Z,17.06
2023-06-07T04:52:40.882Z,17.10
2023-06-07T04:55:10.298Z,17.28
2023-06-07T04:57:39.826Z,16.97
2023-06-07T05:00:14.608Z,17.09
2023-06-07T05:02:46.778Z,16.56
2023-06-07T05:05:16.301Z,16.37
2023-06-07T05:07:46.994Z,16.42
2023-06-07T05:10:15.916Z,16.17
2023-06-07T05:12:44.778Z,16.11
2023-06-07T05:15:14.389Z,16.02
2023-06-07T05:17:43.392Z,16.03
2023-06-07T05:20:14.292Z,16.07
2023-06-07T05:22:43.021Z,16.08
2023-06-07T05:25:13.820Z,16.05
2023-06-07T05:27:42.979Z,15.92
2023-06-07T05:30:11.801Z,15.78
2023-06-07T05:32:40.454Z,15.74
2023-06-07T05:35:09.591Z,15.77
2023-06-07T05:37:38.263Z,15.81
2023-06-07T05:40:10.676Z,15.85
2023-06-07T05:42:41.108Z,15.70
2023-06-07T05:45:11.142Z,15.69
2023-06-07T05:47:40.051Z,15.76
2023-06-07T05:50:09.068Z,15.82
2023-06-07T05:52:37.917Z,15.77
2023-06-07T05:55:07.296Z,15.90
2023-06-07T05:57:36.555Z,15.98
2023-06-07T06:00:13.978Z,16.11
2023-06-07T06:02:44.545Z,15.93
2023-06-07T06:05:14.023Z,16.01
2023-06-07T06:07:42.888Z,15.78
2023-06-07T06:10:11.972Z,15.67
2023-06-07T06:12:40.908Z,15.62
2023-06-07T06:15:10.050Z,15.55
2023-06-07T06:17:38.979Z,15.55
2023-06-07T06:20:08.565Z,15.48
2023-06-07T06:22:37.596Z,15.46
2023-06-07T06:25:08.149Z,15.37
2023-06-07T06:27:37.046Z,15.39
2023-06-07T06:30:06.250Z,15.29
2023-06-07T06:32:35.298Z,15.23
2023-06-07T06:35:05.964Z,15.35
2023-06-07T06:37:34.730Z,15.32
2023-06-07T06:40:03.805Z,15.24
2023-06-07T06:42:32.755Z,15.15
2023-06-07T06:45:04.706Z,15.09
2023-06-07T06:47:33.348Z,15.11
2023-06-07T06:50:03.334Z,15.05
2023-06-07T06:52:34.674Z,15.10
2023-06-07T06:55:03.470Z,15.07
2023-06-07T06:57:32.379Z,15.18
2023-06-07T07:00:03.320Z,15.13
2023-06-07T07:02:32.416Z,15.08
2023-06-07T07:05:01.637Z,15.22
2023-06-07T07:07:30.717Z,15.22
2023-06-07T07:09:59.718Z,15.22
2023-06-07T07:12:31.399Z,15.32
2023-06-07T07:15:00.090Z,15.25
2023-06-07T07:17:28.758Z,15.32
2023-06-07T07:19:57.862Z,15.35
2023-06-07T07:22:28.831Z,15.48
2023-06-07T07:25:00.779Z,15.45
2023-06-07T07:27:29.600Z,15.58
2023-06-07T07:29:58.202Z,15.68
2023-06-07T07:32:27.244Z,15.72
2023-06-07T07:34:55.958Z,15.79
2023-06-07T07:37:24.787Z,15.79
2023-06-07T07:39:55.182Z,15.69
2023-06-07T07:42:23.700Z,15.67
2023-06-07T07:44:52.384Z,15.64
2023-06-07T07:47:21.235Z,15.62
2023-06-07T07:49:49.878Z,15.57
2023-06-07T07:52:20.479Z,15.55
2023-06-07T07:54:51.261Z,15.52
2023-06-07T07:57:20.067Z,15.50
2023-06-07T07:59:48.920Z,15.40
2023-06-07T08:02:18.094Z,15.30
2023-06-07T08:04:46.936Z,15.32
2023-06-07T08:07:18.820Z,15.34
2023-06-07T08:09:47.561Z,15.47
2023-06-07T08:12:16.407Z,15.48
2023-06-07T08:14:45.043Z,15.58
2023-06-07T08:17:13.923Z,15.67
2023-06-07T08:19:42.714Z,15.65
2023-06-07T08:22:11.409Z,15.63
2023-06-07T08:24:40.210Z,15.69
2023-06-07T08:27:09.276Z,15.69
2023-06-07T08:29:38.139Z,15.74
2023-06-07T08:32:07.359Z,15.73
2023-06-07T08:34:36.011Z,15.69
2023-06-07T08:37:04.689Z,15.61
2023-06-07T08:39:33.358Z,15.52
2023-06-07T08:42:02.756Z,15.48
2023-06-07T08:44:31.718Z,15.30
2023-06-07T08:47:04.693Z,15.42
2023-06-07T08:49:36.006Z,15.38
2023-06-07T08:54:49.168Z,15.23
2023-06-07T08:57:21.529Z,15.14
2023-06-07T08:59:53.526Z,15.04
2023-06-07T09:02:22.806Z,14.98
2023-06-07T09:04:51.513Z,15.04
2023-06-07T09:07:20.521Z,15.01
2023-06-07T09:09:49.329Z,14.98
2023-06-07T09:12:17.970Z,14.98
2023-06-07T09:14:49.614Z,14.95
2023-06-07T09:17:18.429Z,14.88
2023-06-07T09:19:47.198Z,14.84
2023-06-07T09:22:16.939Z,14.78
2023-06-07T09:24:46.036Z,14.82
2023-06-07T09:27:17.350Z,14.79
2023-06-07T09:29:47.075Z,14.71
2023-06-07T09:32:28.449Z,14.63
2023-06-07T09:35:16.862Z,14.61
2023-06-07T09:37:47.496Z,14.58
2023-06-07T09:40:17.917Z,14.54
2023-06-07T09:42:47.138Z,14.49
2023-06-07T09:45:20.332Z,14.47
2023-06-07T09:47:49.032Z,14.38
2023-06-07T09:50:18.153Z,14.39
2023-06-07T09:52:58.590Z,14.35
2023-06-07T09:55:29.967Z,14.28
2023-06-07T09:57:59.275Z,14.23
2023-06-07T10:00:30.081Z,14.18
2023-06-07T10:03:08.263Z,14.13
2023-06-07T10:05:37.429Z,14.05
2023-06-07T10:08:07.867Z,14.01
2023-06-07T10:10:37.327Z,13.93
2023-06-07T10:13:07.344Z,13.86
2023-06-07T10:15:37.902Z,13.73
2023-06-07T10:18:15.316Z,13.66
2023-06-07T10:21:08.165Z,13.56
2023-06-07T10:24:02.323Z,13.48
2023-06-07T10:26:39.704Z,13.35
2023-06-07T10:29:10.877Z,13.31
2023-06-07T10:31:46.889Z,13.20
2023-06-07T10:34:17.450Z,13.15
2023-06-07T10:36:45.790Z,13.11
2023-06-07T10:39:14.834Z,13.03
2023-06-07T10:41:44.435Z,12.99
2023-06-07T10:44:13.978Z,12.85
2023-06-07T10:46:42.865Z,12.82
2023-06-07T10:49:38.624Z,12.87
2023-06-07T10:52:08.965Z,12.80
2023-06-07T10:54:39.916Z,12.76
2023-06-07T10:57:09.056Z,12.77
2023-06-07T10:59:39.569Z,12.78
2023-06-07T11:02:30.709Z,12.72
2023-06-07T11:05:05.971Z,12.69
2023-06-07T11:07:34.785Z,12.65
2023-06-07T11:10:06.626Z,12.58
2023-06-07T11:12:38.813Z,12.56
2023-06-07T11:15:23.695Z,12.60
2023-06-07T11:18:09.601Z,12.66
2023-06-07T11:20:40.360Z,12.68
2023-06-07T11:23:34.299Z,12.75
2023-06-07T11:26:13.970Z,12.78
2023-06-07T11:28:43.911Z,12.86
2023-06-07T11:31:15.782Z,12.93
2023-06-07T11:33:45.286Z,12.88
2023-06-07T11:36:14.023Z,12.87
2023-06-07T11:38:51.911Z,12.85
2023-06-07T11:41:20.867Z,12.84
2023-06-07T11:43:49.532Z,12.80
2023-06-07T11:46:19.744Z,12.79
2023-06-07T11:48:48.613Z,12.81
2023-06-07T11:51:17.872Z,12.79
2023-06-07T11:53:50.113Z,12.76
2023-06-07T11:56:19.014Z,12.71
2023-06-07T11:58:48.353Z,12.69
2023-06-07T12:01:17.771Z,12.66
2023-06-07T12:03:46.735Z,12.57
2023-06-07T12:06:15.713Z,12.53
2023-06-07T12:08:44.431Z,12.57
2023-06-07T12:11:13.121Z,12.66
2023-06-07T12:13:42.076Z,12.72
2023-06-07T12:16:11.251Z,12.75
2023-06-07T12:18:40.759Z,12.80
2023-06-07T12:21:14.736Z,12.85
2023-06-07T12:23:55.076Z,12.87
2023-06-07T12:26:32.361Z,12.89
2023-06-07T12:29:04.109Z,12.94
2023-06-07T12:31:32.826Z,13.02
2023-06-07T12:34:09.194Z,13.05
2023-06-07T12:36:41.220Z,13.07
2023-06-07T12:39:14.229Z,13.13
2023-06-07T12:41:43.089Z,13.17
2023-06-07T12:44:12.856Z,13.23
2023-06-07T12:46:41.671Z,13.29
2023-06-07T12:49:10.468Z,13.36
2023-06-07T12:51:39.148Z,13.45
2023-06-07T12:54:08.423Z,13.49
2023-06-07T12:56:37.783Z,13.53
2023-06-07T12:59:07.309Z,13.48
2023-06-07T13:01:36.063Z,13.49
2023-06-07T13:04:04.991Z,13.46
2023-06-07T13:06:33.753Z,13.42
2023-06-07T13:09:12.034Z,13.46
2023-06-07T13:11:41.790Z,13.60
2023-06-07T13:14:11.061Z,13.65
2023-06-07T13:16:40.307Z,13.72
2023-06-07T13:19:09.704Z,13.79
2023-06-07T13:21:39.811Z,13.82
2023-06-07T13:24:08.939Z,13.88
2023-06-07T13:26:37.790Z,13.92
2023-06-07T13:29:06.796Z,13.90
2023-06-07T13:31:35.719Z,13.98
2023-06-07T13:34:04.812Z,14.07
2023-06-07T13:36:33.520Z,14.15
2023-06-07T13:39:02.237Z,14.20
2023-06-07T13:41:31.622Z,14.11
2023-06-07T13:44:16.138Z,14.07
2023-06-07T13:46:47.484Z,14.17
2023-06-07T13:49:17.081Z,14.24
2023-06-07T13:51:45.757Z,14.36
2023-06-07T13:54:14.823Z,14.49
2023-06-07T13:56:44.002Z,14.58
2023-06-07T13:59:13.135Z,14.63
2023-06-07T14:01:42.140Z,14.82
2023-06-07T14:04:10.973Z,14.95
2023-06-07T14:06:41.757Z,15.05
2023-06-07T14:09:10.908Z,15.19
2023-06-07T14:11:40.952Z,15.34
2023-06-07T14:14:09.703Z,15.51
2023-06-07T14:16:38.575Z,15.66
2023-06-07T14:19:07.502Z,15.80
2023-06-07T14:21:37.063Z,15.91
2023-06-07T14:24:06.124Z,16.00
2023-06-07T14:26:34.878Z,16.10
2023-06-07T14:29:03.668Z,16.26
2023-06-07T14:31:33.930Z,16.38
2023-06-07T14:34:02.621Z,16.46
2023-06-07T14:36:31.286Z,16.61
2023-06-07T14:39:00.139Z,16.70
2023-06-07T14:41:29.206Z,16.79
2023-06-07T14:43:58.141Z,16.90
2023-06-07T14:46:26.855Z,17.06
2023-06-07T14:48:56.154Z,17.25
2023-06-07T14:51:25.780Z,17.30
2023-06-07T14:53:54.919Z,17.42
2023-06-07T14:56:24.282Z,17.52
2023-06-07T14:58:53.096Z,17.72
2023-06-07T15:01:21.438Z,17.90
2023-06-07T15:03:50.148Z,18.01
2023-06-07T15:06:18.849Z,18.17
2023-06-07T15:08:48.878Z,18.21
2023-06-07T15:11:17.796Z,18.43
2023-06-07T15:13:46.631Z,18.63
2023-06-07T15:16:15.470Z,18.67
2023-06-07T15:18:44.322Z,19.16
2023-06-07T15:21:13.073Z,19.53
2023-06-07T15:23:41.736Z,19.72
2023-06-07T15:26:10.423Z,20.15
2023-06-07T15:28:39.091Z,20.52
2023-06-07T15:31:08.162Z,20.68
2023-06-07T15:33:36.929Z,21.01
2023-06-07T15:36:05.730Z,21.41
2023-06-07T15:38:39.779Z,21.79
2023-06-07T15:41:09.757Z,21.81
2023-06-07T15:43:38.621Z,22.09
2023-06-07T15:46:07.574Z,22.29
2023-06-07T15:48:36.174Z,22.86
2023-06-07T15:51:05.354Z,23.08
2023-06-07T15:53:34.079Z,22.60
2023-06-07T15:56:02.922Z,23.01
2023-06-07T15:58:31.794Z,23.39
2023-06-07T16:01:00.919Z,23.39
2023-06-07T16:03:42.183Z,23.63
2023-06-07T16:06:18.457Z,23.40
2023-06-07T16:08:46.509Z,23.86
2023-06-07T16:11:15.133Z,24.28
2023-06-07T16:13:44.065Z,24.28
2023-06-07T16:16:12.963Z,24.32
2023-06-07T16:18:41.593Z,24.37
2023-06-07T16:21:10.323Z,24.44
2023-06-07T16:23:39.181Z,24.87
2023-06-07T16:26:07.897Z,25.10
2023-06-07T16:28:36.483Z,25.15
2023-06-07T16:31:05.436Z,25.63
2023-06-07T16:33:34.056Z,25.49
2023-06-07T16:36:03.567Z,25.30
2023-06-07T16:38:33.856Z,25.24
2023-06-07T16:41:02.431Z,25.40
2023-06-07T16:43:31.084Z,23.74
2023-06-07T16:45:59.875Z,25.13
2023-06-07T16:48:28.543Z,25.21
2023-06-07T16:50:57.206Z,25.50
2023-06-07T16:53:26.148Z,25.62
2023-06-07T16:55:54.808Z,26.18
2023-06-07T16:58:25.768Z,26.48
2023-06-07T17:00:54.799Z,25.20
2023-06-07T17:03:27.354Z,25.08
2023-06-07T17:05:56.136Z,24.38
2023-06-07T17:08:24.868Z,25.68
2023-06-07T17:10:53.611Z,25.91
2023-06-07T17:13:22.241Z,26.16
2023-06-07T17:15:53.796Z,26.37
2023-06-07T17:18:23.363Z,26.21
2023-06-07T17:20:52.311Z,26.56
2023-06-07T17:23:20.987Z,26.22
2023-06-07T17:25:49.831Z,26.82
2023-06-07T17:28:18.587Z,27.40
2023-06-07T17:30:47.565Z,27.88
2023-06-07T17:33:16.226Z,27.76
2023-06-07T17:35:45.379Z,26.30
2023-06-07T17:38:14.011Z,27.25
2023-06-07T17:40:42.691Z,26.29
2023-06-07T17:43:14.419Z,27.46
2023-06-07T17:45:43.096Z,27.41
2023-06-07T17:48:11.883Z,27.40
2023-06-07T17:50:46.497Z,27.60
2023-06-07T17:53:16.249Z,27.29
2023-06-07T17:55:47.588Z,27.37
2023-06-07T17:58:16.892Z,28.07
2023-06-07T18:00:45.566Z,28.28
2023-06-07T18:03:20.892Z,27.49
2023-06-07T18:05:49.969Z,28.14
2023-06-07T18:08:18.626Z,27.33
2023-06-07T18:10:47.271Z,26.22
2023-06-07T18:13:15.940Z,25.55
2023-06-07T18:15:44.904Z,25.41
2023-06-07T18:18:13.793Z,25.74
2023-06-07T18:20:42.480Z,27.09
2023-06-07T18:23:14.861Z,27.05
2023-06-07T18:25:43.580Z,27.46
2023-06-07T18:28:12.284Z,26.65
2023-06-07T18:30:41.062Z,27.34
2023-06-07T18:33:09.893Z,26.42
2023-06-07T18:35:38.560Z,26.23
2023-06-07T18:38:07.627Z,26.27
2023-06-07T18:40:36.293Z,27.52
2023-06-07T18:43:04.939Z,28.33
2023-06-07T18:45:33.727Z,27.96
2023-06-07T18:48:02.722Z,28.35
2023-06-07T18:50:31.475Z,27.94
2023-06-07T18:52:59.518Z,28.62
2023-06-07T18:55:28.098Z,28.46
2023-06-07T18:57:56.976Z,28.53
2023-06-07T19:00:25.892Z,28.67
2023-06-07T19:02:56.792Z,27.11
2023-06-07T19:05:26.256Z,25.84
2023-06-07T19:07:54.976Z,27.69
2023-06-07T19:10:23.587Z,28.10
2023-06-07T19:12:52.478Z,28.36
2023-06-07T19:15:21.114Z,27.79
2023-06-07T19:17:49.871Z,27.33
2023-06-07T19:20:20.200Z,26.77
2023-06-07T19:22:48.860Z,27.15
2023-06-07T19:25:18.347Z,27.67
2023-06-07T19:27:47.279Z,27.18
2023-06-07T19:30:16.456Z,26.92
2023-06-07T19:32:45.178Z,26.64
2023-06-07T19:35:14.118Z,26.66
2023-06-07T19:37:42.890Z,26.70
2023-06-07T19:40:13.092Z,26.67
2023-06-07T19:42:41.766Z,26.65
2023-06-07T19:45:11.413Z,26.91
2023-06-07T19:47:40.171Z,27.23
2023-06-07T19:50:09.409Z,27.70
2023-06-07T19:52:38.070Z,27.60
2023-06-07T19:55:07.357Z,27.04
2023-06-07T19:57:36.405Z,26.83
2023-06-07T20:00:06.457Z,26.72
2023-06-07T20:02:35.919Z,26.58
2023-06-07T20:05:04.730Z,26.87
2023-06-07T20:07:33.390Z,26.87
2023-06-07T20:10:06.449Z,27.00
2023-06-07T20:12:35.621Z,26.71
2023-06-07T20:15:04.592Z,26.90
2023-06-07T20:17:33.375Z,26.92
2023-06-07T20:20:02.244Z,26.92
2023-06-07T20:22:32.875Z,26.64
2023-06-07T20:25:03.928Z,26.43
2023-06-07T20:27:33.348Z,26.85
2023-06-07T20:30:02.753Z,26.44
2023-06-07T20:32:31.433Z,26.59
2023-06-07T20:35:00.232Z,26.97
2023-06-07T20:37:28.922Z,26.87
2023-06-07T20:39:57.503Z,26.65
2023-06-07T20:42:26.182Z,26.78
2023-06-07T20:44:54.882Z,26.82
2023-06-07T20:47:23.502Z,26.81
2023-06-07T20:49:53.552Z,27.07
2023-06-07T20:52:22.253Z,27.20
2023-06-07T20:54:50.958Z,27.51
2023-06-07T20:57:19.651Z,27.63
2023-06-07T20:59:49.380Z,27.41
2023-06-07T21:02:18.296Z,27.27
2023-06-07T21:04:47.049Z,27.10
2023-06-07T21:07:15.736Z,27.47
2023-06-07T21:09:44.423Z,27.59
2023-06-07T21:12:13.275Z,27.19
2023-06-07T21:14:41.999Z,26.72
2023-06-07T21:17:10.720Z,27.42
2023-06-07T21:19:39.814Z,27.09
2023-06-07T21:22:08.212Z,27.66
2023-06-07T21:24:36.930Z,27.48
2023-06-07T21:27:05.879Z,27.92
2023-06-07T21:29:34.501Z,27.76
2023-06-07T21:32:03.311Z,27.40
2023-06-07T21:34:32.345Z,27.21
2023-06-07T21:37:01.005Z,26.80
2023-06-07T21:39:29.725Z,27.24
2023-06-07T21:41:59.824Z,26.98
2023-06-07T21:44:28.546Z,27.27
2023-06-07T21:46:57.275Z,27.50
2023-06-07T21:49:25.944Z,27.65
2023-06-07T21:51:54.641Z,27.66
2023-06-07T21:54:23.364Z,27.76
2023-06-07T21:56:51.974Z,27.72
2023-06-07T21:59:21.171Z,27.79
2023-06-07T22:01:49.792Z,27.62
2023-06-07T22:04:18.601Z,27.40
2023-06-07T22:06:47.325Z,27.66
2023-06-07T22:09:15.980Z,27.99
2023-06-07T22:11:47.004Z,28.01
2023-06-07T22:14:15.901Z,27.87
2023-06-07T22:16:47.188Z,27.39
2023-06-07T22:19:17.348Z,27.85
2023-06-07T22:21:46.544Z,27.45
2023-06-07T22:24:17.268Z,27.86
2023-06-07T22:26:46.330Z,27.72
2023-06-07T22:29:15.236Z,27.58
2023-06-07T22:31:44.167Z,27.60
2023-06-07T22:34:13.304Z,27.69
2023-06-07T22:36:44.938Z,27.88
2023-06-07T22:39:17.470Z,28.20
2023-06-07T22:41:46.062Z,27.98
2023-06-07T22:44:15.238Z,27.62
2023-06-07T22:46:43.863Z,27.49
2023-06-07T22:49:14.062Z,27.51
2023-06-07T22:51:43.633Z,27.67
2023-06-07T22:54:12.328Z,27.91
2023-06-07T22:56:41.027Z,27.94
2023-06-07T22:59:09.794Z,27.90
2023-06-07T23:01:38.795Z,27.65
2023-06-07T23:04:07.807Z,27.39
2023-06-07T23:06:37.587Z,27.83
2023-06-07T23:09:07.066Z,27.65
2023-06-07T23:11:36.185Z,27.81
2023-06-07T23:14:05.228Z,27.75
2023-06-07T23:16:33.910Z,27.56
2023-06-07T23:19:06.256Z,28.11
2023-06-07T23:21:34.943Z,28.15
2023-06-07T23:24:03.676Z,28.10
2023-06-07T23:26:32.560Z,27.87
2023-06-07T23:29:01.154Z,27.90
2023-06-07T23:31:30.113Z,27.70
2023-06-07T23:33:58.996Z,27.69
2023-06-07T23:36:29.927Z,27.73
2023-06-07T23:38:59.907Z,28.01
2023-06-07T23:41:28.828Z,27.94
2023-06-07T23:43:57.953Z,28.11
2023-06-07T23:46:27.381Z,28.52
2023-06-07T23:48:55.963Z,28.23
2023-06-07T23:51:24.550Z,28.11
2023-06-07T23:53:53.400Z,28.00
2023-06-07T23:56:22.175Z,28.29
2023-06-07T23:58:51.330Z,28.07
